sensor_id;sensor_type;location;lat;lon;timestamp;pressure;altitude;pressure_sealevel;temperature;humidity
550;BME280;20066;48.764;9.176;2022-12-13T00:01:27;97567.47;;;-0.99;58.86
550;BME280;20066;48.764;9.176;2022-12-13T00:03:59;97561.03;;;-1.10;59.40
550;BME280;20066;48.764;9.176;2022-12-13T00:06:28;97560.25;;;-1.81;61.56
550;BME280;20066;48.764;9.176;2022-12-13T00:08:56;97558.16;;;-1.67;60.62
550;BME280;20066;48.764;9.176;2022-12-13T00:11:26;97556.78;;;-1.44;60.96
550;BME280;20066;48.764;9.176;2022-12-13T00:13:55;97549.25;;;-1.13;59.46
550;BME280;20066;48.764;9.176;2022-12-13T00:16:24;97539.66;;;-0.96;59.67
550;BME280;20066;48.764;9.176;2022-12-13T00:18:53;97553.03;;;-1.01;59.44
550;BME280;20066;48.764;9.176;2022-12-13T00:21:24;97554.66;;;-1.09;59.58
550;BME280;20066;48.764;9.176;2022-12-13T00:23:52;97553.94;;;-1.18;60.05
550;BME280;20066;48.764;9.176;2022-12-13T00:26:22;97550.63;;;-1.57;61.07
550;BME280;20066;48.764;9.176;2022-12-13T00:28:51;97557.22;;;-1.42;60.03
550;BME280;20066;48.764;9.176;2022-12-13T00:31:21;97548.81;;;-1.35;60.53
550;BME280;20066;48.764;9.176;2022-12-13T00:34:09;97546.44;;;-1.07;59.43
550;BME280;20066;48.764;9.176;2022-12-13T00:36:37;97553.47;;;-0.79;58.53
550;BME280;20066;48.764;9.176;2022-12-13T00:39:04;97545.53;;;-0.58;57.99
550;BME280;20066;48.764;9.176;2022-12-13T00:41:34;97545.31;;;-0.86;57.97
550;BME280;20066;48.764;9.176;2022-12-13T00:44:04;97543.91;;;-0.83;58.50
550;BME280;20066;48.764;9.176;2022-12-13T00:46:31;97551.84;;;-1.04;58.46
550;BME280;20066;48.764;9.176;2022-12-13T00:49:00;97549.16;;;-0.83;58.05
550;BME280;20066;48.764;9.176;2022-12-13T00:51:30;97532.94;;;-0.73;58.07
550;BME280;20066;48.764;9.176;2022-12-13T00:53:58;97533.72;;;-0.93;58.47
550;BME280;20066;48.764;9.176;2022-12-13T00:56:29;97523.56;;;-0.83;57.78
550;BME280;20066;48.764;9.176;2022-12-13T00:58:57;97524.28;;;-0.61;57.08
550;BME280;20066;48.764;9.176;2022-12-13T01:01:28;97522.41;;;-0.49;56.53
550;BME280;20066;48.764;9.176;2022-12-13T01:03:59;97514.47;;;-0.61;56.67
550;BME280;20066;48.764;9.176;2022-12-13T01:06:30;97511.34;;;-1.08;57.95
550;BME280;20066;48.764;9.176;2022-12-13T01:09:00;97509.25;;;-1.56;58.98
550;BME280;20066;48.764;9.176;2022-12-13T01:11:27;97503.13;;;-1.48;59.23
550;BME280;20066;48.764;9.176;2022-12-13T01:13:55;97502.94;;;-1.22;59.47
550;BME280;20066;48.764;9.176;2022-12-13T01:16:23;97499.41;;;-1.26;58.65
550;BME280;20066;48.764;9.176;2022-12-13T01:18:52;97508.56;;;-0.91;58.41
550;BME280;20066;48.764;9.176;2022-12-13T01:21:19;97512.00;;;-0.78;57.71
550;BME280;20066;48.764;9.176;2022-12-13T01:23:48;97521.31;;;-0.60;57.23
550;BME280;20066;48.764;9.176;2022-12-13T01:26:18;97523.56;;;-1.03;58.27
550;BME280;20066;48.764;9.176;2022-12-13T01:28:46;97520.47;;;-0.73;57.23
550;BME280;20066;48.764;9.176;2022-12-13T01:31:15;97519.84;;;-0.69;57.58
550;BME280;20066;48.764;9.176;2022-12-13T01:33:44;97529.44;;;-0.98;58.42
550;BME280;20066;48.764;9.176;2022-12-13T01:36:15;97523.34;;;-0.78;57.83
550;BME280;20066;48.764;9.176;2022-12-13T01:38:43;97525.25;;;-0.66;57.54
550;BME280;20066;48.764;9.176;2022-12-13T01:41:14;97520.16;;;-0.71;57.60
550;BME280;20066;48.764;9.176;2022-12-13T01:43:52;97516.34;;;-0.61;57.40
550;BME280;20066;48.764;9.176;2022-12-13T01:46:21;97519.66;;;-1.60;60.08
550;BME280;20066;48.764;9.176;2022-12-13T01:48:54;97514.66;;;-2.49;63.48
550;BME280;20066;48.764;9.176;2022-12-13T01:51:28;97510.13;;;-2.02;62.89
550;BME280;20066;48.764;9.176;2022-12-13T01:54:00;97513.50;;;-1.43;60.93
550;BME280;20066;48.764;9.176;2022-12-13T01:56:33;97510.34;;;-1.36;60.48
550;BME280;20066;48.764;9.176;2022-12-13T01:59:05;97510.03;;;-1.14;58.99
550;BME280;20066;48.764;9.176;2022-12-13T02:01:34;97508.28;;;-1.31;58.66
550;BME280;20066;48.764;9.176;2022-12-13T02:04:02;97507.81;;;-1.33;58.84
550;BME280;20066;48.764;9.176;2022-12-13T02:06:34;97503.84;;;-1.18;58.73
550;BME280;20066;48.764;9.176;2022-12-13T02:09:04;97496.59;;;-1.21;58.64
550;BME280;20066;48.764;9.176;2022-12-13T02:11:34;97495.41;;;-1.12;58.03
550;BME280;20066;48.764;9.176;2022-12-13T02:14:04;97490.78;;;-1.15;57.82
550;BME280;20066;48.764;9.176;2022-12-13T02:16:42;97491.00;;;-1.20;58.49
550;BME280;20066;48.764;9.176;2022-12-13T02:19:43;97483.91;;;-0.95;57.64
550;BME280;20066;48.764;9.176;2022-12-13T02:22:37;97481.72;;;-0.93;57.59
550;BME280;20066;48.764;9.176;2022-12-13T02:25:27;97479.16;;;-0.81;57.07
550;BME280;20066;48.764;9.176;2022-12-13T02:28:14;97483.44;;;-1.09;57.70
550;BME280;20066;48.764;9.176;2022-12-13T02:31:04;97483.28;;;-0.92;57.17
550;BME280;20066;48.764;9.176;2022-12-13T02:33:42;97486.81;;;-1.21;58.02
550;BME280;20066;48.764;9.176;2022-12-13T02:36:18;97483.44;;;-1.09;57.95
550;BME280;20066;48.764;9.176;2022-12-13T02:38:52;97482.13;;;-1.03;57.27
550;BME280;20066;48.764;9.176;2022-12-13T02:41:26;97488.41;;;-0.95;57.07
550;BME280;20066;48.764;9.176;2022-12-13T02:43:57;97482.47;;;-1.04;56.97
550;BME280;20066;48.764;9.176;2022-12-13T02:46:33;97480.97;;;-1.47;58.34
550;BME280;20066;48.764;9.176;2022-12-13T02:49:02;97481.28;;;-1.48;58.26
550;BME280;20066;48.764;9.176;2022-12-13T02:51:31;97481.53;;;-1.62;58.47
550;BME280;20066;48.764;9.176;2022-12-13T02:54:01;97470.97;;;-1.41;58.40
550;BME280;20066;48.764;9.176;2022-12-13T02:56:30;97483.47;;;-1.30;57.41
550;BME280;20066;48.764;9.176;2022-12-13T02:58:58;97477.72;;;-1.32;57.35
550;BME280;20066;48.764;9.176;2022-12-13T03:01:42;97479.34;;;-1.39;57.54
550;BME280;20066;48.764;9.176;2022-12-13T03:04:25;97479.88;;;-1.67;57.60
550;BME280;20066;48.764;9.176;2022-12-13T03:07:06;97468.66;;;-1.64;58.10
550;BME280;20066;48.764;9.176;2022-12-13T03:09:46;97463.03;;;-1.54;58.25
550;BME280;20066;48.764;9.176;2022-12-13T03:12:23;97460.63;;;-1.46;57.48
550;BME280;20066;48.764;9.176;2022-12-13T03:15:18;97464.88;;;-1.75;58.62
550;BME280;20066;48.764;9.176;2022-12-13T03:17:52;97447.00;;;-1.69;59.15
550;BME280;20066;48.764;9.176;2022-12-13T03:20:23;97444.69;;;-1.92;58.77
550;BME280;20066;48.764;9.176;2022-12-13T03:22:53;97436.44;;;-2.11;59.43
550;BME280;20066;48.764;9.176;2022-12-13T03:25:25;97437.84;;;-2.43;60.98
550;BME280;20066;48.764;9.176;2022-12-13T03:27:58;97442.25;;;-1.97;59.49
550;BME280;20066;48.764;9.176;2022-12-13T03:30:29;97450.75;;;-1.70;58.79
550;BME280;20066;48.764;9.176;2022-12-13T03:32:59;97447.06;;;-1.78;58.71
550;BME280;20066;48.764;9.176;2022-12-13T03:35:27;97455.56;;;-1.52;57.69
550;BME280;20066;48.764;9.176;2022-12-13T03:38:00;97451.06;;;-1.51;58.10
550;BME280;20066;48.764;9.176;2022-12-13T03:40:28;97450.09;;;-1.46;57.27
550;BME280;20066;48.764;9.176;2022-12-13T03:42:56;97447.59;;;-1.43;57.15
550;BME280;20066;48.764;9.176;2022-12-13T03:45:25;97439.25;;;-2.16;59.11
550;BME280;20066;48.764;9.176;2022-12-13T03:47:53;97438.66;;;-1.71;58.16
550;BME280;20066;48.764;9.176;2022-12-13T03:50:22;97448.88;;;-1.70;57.69
550;BME280;20066;48.764;9.176;2022-12-13T03:52:57;97445.28;;;-1.44;57.10
550;BME280;20066;48.764;9.176;2022-12-13T03:55:25;97439.09;;;-1.48;57.01
550;BME280;20066;48.764;9.176;2022-12-13T03:57:52;97437.88;;;-1.72;57.98
550;BME280;20066;48.764;9.176;2022-12-13T04:00:20;97435.97;;;-1.83;58.19
550;BME280;20066;48.764;9.176;2022-12-13T04:02:48;97424.97;;;-1.65;57.36
550;BME280;20066;48.764;9.176;2022-12-13T04:05:16;97430.69;;;-1.83;57.59
550;BME280;20066;48.764;9.176;2022-12-13T04:07:45;97422.56;;;-2.20;58.16
550;BME280;20066;48.764;9.176;2022-12-13T04:10:14;97435.03;;;-1.88;57.49
550;BME280;20066;48.764;9.176;2022-12-13T04:12:52;97431.41;;;-1.74;57.64
550;BME280;20066;48.764;9.176;2022-12-13T04:15:38;97429.59;;;-1.82;57.88
550;BME280;20066;48.764;9.176;2022-12-13T04:18:06;97429.50;;;-1.95;57.92
550;BME280;20066;48.764;9.176;2022-12-13T04:20:33;97429.78;;;-1.88;57.65
550;BME280;20066;48.764;9.176;2022-12-13T04:23:03;97424.84;;;-1.89;57.49
550;BME280;20066;48.764;9.176;2022-12-13T04:25:36;97423.56;;;-1.62;57.01
550;BME280;20066;48.764;9.176;2022-12-13T04:28:04;97431.53;;;-1.92;58.29
550;BME280;20066;48.764;9.176;2022-12-13T04:30:32;97434.56;;;-1.60;57.74
550;BME280;20066;48.764;9.176;2022-12-13T04:33:00;97427.84;;;-1.58;57.38
550;BME280;20066;48.764;9.176;2022-12-13T04:35:27;97435.59;;;-1.73;57.21
550;BME280;20066;48.764;9.176;2022-12-13T04:37:55;97428.13;;;-1.71;57.04
550;BME280;20066;48.764;9.176;2022-12-13T04:40:24;97428.94;;;-1.79;57.49
550;BME280;20066;48.764;9.176;2022-12-13T04:42:52;97431.44;;;-2.04;57.91
550;BME280;20066;48.764;9.176;2022-12-13T04:45:21;97433.31;;;-1.83;57.60
550;BME280;20066;48.764;9.176;2022-12-13T04:47:49;97420.72;;;-1.78;57.35
550;BME280;20066;48.764;9.176;2022-12-13T04:50:17;97429.19;;;-1.93;57.35
550;BME280;20066;48.764;9.176;2022-12-13T04:52:45;97422.53;;;-1.70;56.53
550;BME280;20066;48.764;9.176;2022-12-13T04:55:12;97420.06;;;-1.96;57.02
550;BME280;20066;48.764;9.176;2022-12-13T04:57:42;97425.47;;;-1.71;57.27
550;BME280;20066;48.764;9.176;2022-12-13T05:00:11;97424.72;;;-1.72;56.62
550;BME280;20066;48.764;9.176;2022-12-13T05:02:40;97421.66;;;-2.53;58.68
550;BME280;20066;48.764;9.176;2022-12-13T05:05:08;97420.88;;;-2.04;57.96
550;BME280;20066;48.764;9.176;2022-12-13T05:07:37;97418.56;;;-1.97;57.74
550;BME280;20066;48.764;9.176;2022-12-13T05:10:09;97414.78;;;-2.46;59.42
550;BME280;20066;48.764;9.176;2022-12-13T05:12:37;97419.38;;;-2.05;57.53
550;BME280;20066;48.764;9.176;2022-12-13T05:15:07;97416.59;;;-2.67;59.49
550;BME280;20066;48.764;9.176;2022-12-13T05:17:35;97423.84;;;-2.35;58.78
550;BME280;20066;48.764;9.176;2022-12-13T05:20:03;97415.97;;;-2.05;57.88
550;BME280;20066;48.764;9.176;2022-12-13T05:22:31;97419.06;;;-2.33;58.79
550;BME280;20066;48.764;9.176;2022-12-13T05:24:59;97415.50;;;-1.86;58.04
550;BME280;20066;48.764;9.176;2022-12-13T05:27:28;97421.25;;;-1.84;57.45
550;BME280;20066;48.764;9.176;2022-12-13T05:29:56;97415.47;;;-1.78;57.06
550;BME280;20066;48.764;9.176;2022-12-13T05:32:32;97420.47;;;-1.64;57.23
550;BME280;20066;48.764;9.176;2022-12-13T05:35:10;97407.63;;;-1.66;56.86
550;BME280;20066;48.764;9.176;2022-12-13T05:37:38;97411.59;;;-1.60;56.84
550;BME280;20066;48.764;9.176;2022-12-13T05:40:16;97411.41;;;-1.75;56.45
550;BME280;20066;48.764;9.176;2022-12-13T05:42:44;97410.75;;;-1.93;58.03
550;BME280;20066;48.764;9.176;2022-12-13T05:45:11;97406.31;;;-1.80;57.83
550;BME280;20066;48.764;9.176;2022-12-13T05:47:41;97406.97;;;-1.63;57.43
550;BME280;20066;48.764;9.176;2022-12-13T05:50:09;97406.00;;;-1.58;57.38
550;BME280;20066;48.764;9.176;2022-12-13T05:52:37;97411.34;;;-1.88;57.74
550;BME280;20066;48.764;9.176;2022-12-13T05:55:06;97405.38;;;-1.76;57.49
550;BME280;20066;48.764;9.176;2022-12-13T05:57:33;97396.25;;;-1.78;57.74
550;BME280;20066;48.764;9.176;2022-12-13T06:00:03;97399.06;;;-1.83;57.69
550;BME280;20066;48.764;9.176;2022-12-13T06:02:54;97395.59;;;-1.75;57.52
550;BME280;20066;48.764;9.176;2022-12-13T06:05:26;97389.22;;;-1.95;57.26
550;BME280;20066;48.764;9.176;2022-12-13T06:07:53;97388.44;;;-2.16;58.30
550;BME280;20066;48.764;9.176;2022-12-13T06:10:24;97397.31;;;-1.79;57.20
550;BME280;20066;48.764;9.176;2022-12-13T06:13:01;97396.03;;;-1.94;57.90
550;BME280;20066;48.764;9.176;2022-12-13T06:15:49;97397.22;;;-1.83;57.23
550;BME280;20066;48.764;9.176;2022-12-13T06:18:18;97395.53;;;-1.88;57.64
550;BME280;20066;48.764;9.176;2022-12-13T06:20:55;97402.91;;;-2.22;58.07
550;BME280;20066;48.764;9.176;2022-12-13T06:23:23;97411.41;;;-1.96;57.56
550;BME280;20066;48.764;9.176;2022-12-13T06:25:51;97403.94;;;-1.94;57.29
550;BME280;20066;48.764;9.176;2022-12-13T06:28:19;97403.06;;;-1.98;57.75
550;BME280;20066;48.764;9.176;2022-12-13T06:30:46;97392.06;;;-2.21;58.07
550;BME280;20066;48.764;9.176;2022-12-13T06:33:19;97396.25;;;-1.99;57.81
550;BME280;20066;48.764;9.176;2022-12-13T06:35:49;97392.00;;;-1.92;57.75
550;BME280;20066;48.764;9.176;2022-12-13T06:38:17;97389.69;;;-1.93;58.01
550;BME280;20066;48.764;9.176;2022-12-13T06:41:06;97400.47;;;-1.86;57.17
550;BME280;20066;48.764;9.176;2022-12-13T06:43:34;97394.13;;;-1.85;57.79
550;BME280;20066;48.764;9.176;2022-12-13T06:46:03;97390.16;;;-1.91;58.42
550;BME280;20066;48.764;9.176;2022-12-13T06:48:33;97386.53;;;-2.28;58.80
550;BME280;20066;48.764;9.176;2022-12-13T06:51:01;97395.81;;;-2.31;59.30
550;BME280;20066;48.764;9.176;2022-12-13T06:53:30;97404.66;;;-2.06;57.95
550;BME280;20066;48.764;9.176;2022-12-13T06:56:02;97409.56;;;-1.75;57.63
550;BME280;20066;48.764;9.176;2022-12-13T06:58:30;97418.41;;;-2.00;57.61
550;BME280;20066;48.764;9.176;2022-12-13T07:01:02;97407.09;;;-1.80;57.42
550;BME280;20066;48.764;9.176;2022-12-13T07:03:30;97410.13;;;-1.69;57.39
550;BME280;20066;48.764;9.176;2022-12-13T07:06:03;97419.31;;;-1.75;57.54
550;BME280;20066;48.764;9.176;2022-12-13T07:08:32;97413.84;;;-1.70;57.28
550;BME280;20066;48.764;9.176;2022-12-13T07:11:00;97413.78;;;-1.82;57.73
550;BME280;20066;48.764;9.176;2022-12-13T07:13:27;97415.97;;;-1.84;58.02
550;BME280;20066;48.764;9.176;2022-12-13T07:15:56;97428.72;;;-2.16;57.81
550;BME280;20066;48.764;9.176;2022-12-13T07:18:26;97428.44;;;-1.94;58.21
550;BME280;20066;48.764;9.176;2022-12-13T07:20:55;97433.13;;;-1.99;58.09
550;BME280;20066;48.764;9.176;2022-12-13T07:23:24;97431.34;;;-2.16;58.41
550;BME280;20066;48.764;9.176;2022-12-13T07:25:52;97421.09;;;-2.09;58.17
550;BME280;20066;48.764;9.176;2022-12-13T07:28:20;97421.09;;;-2.38;59.59
550;BME280;20066;48.764;9.176;2022-12-13T07:30:48;97430.31;;;-2.23;59.98
550;BME280;20066;48.764;9.176;2022-12-13T07:33:16;97424.63;;;-3.27;62.76
550;BME280;20066;48.764;9.176;2022-12-13T07:35:48;97427.31;;;-2.43;60.94
550;BME280;20066;48.764;9.176;2022-12-13T07:38:21;97424.44;;;-2.00;59.57
550;BME280;20066;48.764;9.176;2022-12-13T07:40:50;97424.47;;;-1.58;58.81
550;BME280;20066;48.764;9.176;2022-12-13T07:43:18;97425.34;;;-1.54;58.42
550;BME280;20066;48.764;9.176;2022-12-13T07:45:46;97434.41;;;-1.43;58.13
550;BME280;20066;48.764;9.176;2022-12-13T07:48:14;97439.41;;;-1.29;57.47
550;BME280;20066;48.764;9.176;2022-12-13T07:50:41;97439.63;;;-1.55;57.26
550;BME280;20066;48.764;9.176;2022-12-13T07:53:09;97439.34;;;-1.41;57.85
550;BME280;20066;48.764;9.176;2022-12-13T07:55:37;97448.63;;;-1.35;57.24
550;BME280;20066;48.764;9.176;2022-12-13T07:58:08;97444.56;;;-1.54;57.79
550;BME280;20066;48.764;9.176;2022-12-13T08:00:36;97451.75;;;-1.21;56.86
550;BME280;20066;48.764;9.176;2022-12-13T08:03:05;97459.69;;;-1.09;56.40
550;BME280;20066;48.764;9.176;2022-12-13T08:05:37;97458.22;;;-0.86;55.81
550;BME280;20066;48.764;9.176;2022-12-13T08:08:07;97458.91;;;-0.64;55.31
550;BME280;20066;48.764;9.176;2022-12-13T08:10:35;97449.81;;;-0.55;54.83
550;BME280;20066;48.764;9.176;2022-12-13T08:13:03;97456.75;;;-0.50;54.96
550;BME280;20066;48.764;9.176;2022-12-13T08:15:33;97450.16;;;-0.32;54.22
550;BME280;20066;48.764;9.176;2022-12-13T08:18:01;97454.53;;;-0.60;54.72
550;BME280;20066;48.764;9.176;2022-12-13T08:20:29;97459.47;;;-0.71;55.30
550;BME280;20066;48.764;9.176;2022-12-13T08:22:57;97459.31;;;-0.87;56.41
550;BME280;20066;48.764;9.176;2022-12-13T08:25:28;97460.91;;;-0.49;55.42
550;BME280;20066;48.764;9.176;2022-12-13T08:27:56;97459.78;;;-0.73;55.01
550;BME280;20066;48.764;9.176;2022-12-13T08:30:28;97457.72;;;-0.55;55.31
550;BME280;20066;48.764;9.176;2022-12-13T08:32:57;97449.72;;;-0.58;55.50
550;BME280;20066;48.764;9.176;2022-12-13T08:35:30;97451.66;;;-0.55;55.51
550;BME280;20066;48.764;9.176;2022-12-13T08:38:00;97453.69;;;-0.28;54.37
550;BME280;20066;48.764;9.176;2022-12-13T08:40:28;97449.59;;;-0.25;54.68
550;BME280;20066;48.764;9.176;2022-12-13T08:42:55;97452.00;;;-1.14;57.21
550;BME280;20066;48.764;9.176;2022-12-13T08:45:23;97455.34;;;-1.26;56.71
550;BME280;20066;48.764;9.176;2022-12-13T08:47:52;97456.72;;;-1.61;59.47
550;BME280;20066;48.764;9.176;2022-12-13T08:50:22;97457.06;;;-1.09;57.95
550;BME280;20066;48.764;9.176;2022-12-13T08:52:50;97454.06;;;-1.20;57.84
550;BME280;20066;48.764;9.176;2022-12-13T08:55:18;97465.38;;;-1.19;57.42
550;BME280;20066;48.764;9.176;2022-12-13T08:57:58;97469.03;;;-1.12;58.20
550;BME280;20066;48.764;9.176;2022-12-13T09:00:26;97464.41;;;-0.82;57.83
550;BME280;20066;48.764;9.176;2022-12-13T09:03:01;97460.84;;;-0.86;56.82
550;BME280;20066;48.764;9.176;2022-12-13T09:05:31;97451.66;;;-0.67;57.08
550;BME280;20066;48.764;9.176;2022-12-13T09:08:01;97447.97;;;-0.99;57.13
550;BME280;20066;48.764;9.176;2022-12-13T09:10:55;97446.44;;;-2.25;60.73
550;BME280;20066;48.764;9.176;2022-12-13T09:13:25;97436.00;;;-2.13;61.54
550;BME280;20066;48.764;9.176;2022-12-13T09:15:58;97445.28;;;-0.66;57.54
550;BME280;20066;48.764;9.176;2022-12-13T09:18:27;97434.16;;;-1.17;57.71
550;BME280;20066;48.764;9.176;2022-12-13T09:21:06;97438.88;;;-0.90;58.01
550;BME280;20066;48.764;9.176;2022-12-13T09:23:37;97436.38;;;-1.19;57.46
550;BME280;20066;48.764;9.176;2022-12-13T09:26:14;97445.81;;;-1.51;58.46
550;BME280;20066;48.764;9.176;2022-12-13T09:28:42;97447.13;;;-0.79;56.63
550;BME280;20066;48.764;9.176;2022-12-13T09:31:11;97446.19;;;-0.50;55.65
550;BME280;20066;48.764;9.176;2022-12-13T09:33:41;97443.38;;;-0.90;55.68
550;BME280;20066;48.764;9.176;2022-12-13T09:36:12;97437.97;;;-1.27;56.90
550;BME280;20066;48.764;9.176;2022-12-13T09:38:40;97441.47;;;-1.02;55.92
550;BME280;20066;48.764;9.176;2022-12-13T09:41:17;97451.66;;;-0.67;54.96
550;BME280;20066;48.764;9.176;2022-12-13T09:43:56;97443.09;;;-0.16;54.27
550;BME280;20066;48.764;9.176;2022-12-13T09:46:29;97454.47;;;0.37;52.95
550;BME280;20066;48.764;9.176;2022-12-13T09:49:13;97451.16;;;1.71;50.31
550;BME280;20066;48.764;9.176;2022-12-13T09:51:52;97448.84;;;2.35;48.11
550;BME280;20066;48.764;9.176;2022-12-13T09:54:37;97451.34;;;1.62;48.30
550;BME280;20066;48.764;9.176;2022-12-13T09:57:17;97444.19;;;2.13;49.12
550;BME280;20066;48.764;9.176;2022-12-13T10:00:00;97443.28;;;1.11;49.85
550;BME280;20066;48.764;9.176;2022-12-13T10:02:29;97443.94;;;0.25;51.53
550;BME280;20066;48.764;9.176;2022-12-13T10:05:14;97444.31;;;-0.25;52.93
550;BME280;20066;48.764;9.176;2022-12-13T10:07:52;97442.00;;;1.21;51.25
550;BME280;20066;48.764;9.176;2022-12-13T10:10:21;97441.94;;;1.80;48.40
550;BME280;20066;48.764;9.176;2022-12-13T10:12:54;97441.13;;;2.11;48.05
550;BME280;20066;48.764;9.176;2022-12-13T10:15:25;97430.22;;;1.03;49.91
550;BME280;20066;48.764;9.176;2022-12-13T10:17:54;97425.94;;;1.77;49.28
550;BME280;20066;48.764;9.176;2022-12-13T10:20:25;97419.44;;;2.63;46.61
550;BME280;20066;48.764;9.176;2022-12-13T10:22:56;97421.25;;;2.21;46.42
550;BME280;20066;48.764;9.176;2022-12-13T10:25:46;97419.50;;;2.28;46.74
550;BME280;20066;48.764;9.176;2022-12-13T10:28:18;97416.47;;;1.60;48.63
550;BME280;20066;48.764;9.176;2022-12-13T10:30:51;97427.56;;;2.16;48.38
550;BME280;20066;48.764;9.176;2022-12-13T10:33:22;97417.97;;;0.15;52.12
550;BME280;20066;48.764;9.176;2022-12-13T10:36:04;97412.69;;;1.14;50.21
550;BME280;20066;48.764;9.176;2022-12-13T10:38:39;97412.13;;;1.52;48.32
550;BME280;20066;48.764;9.176;2022-12-13T10:41:29;97403.34;;;0.73;50.03
550;BME280;20066;48.764;9.176;2022-12-13T10:44:20;97405.19;;;1.63;49.35
550;BME280;20066;48.764;9.176;2022-12-13T10:46:52;97401.31;;;0.54;51.20
550;BME280;20066;48.764;9.176;2022-12-13T10:49:37;97397.63;;;0.43;52.50
550;BME280;20066;48.764;9.176;2022-12-13T10:52:17;97396.03;;;1.60;47.95
550;BME280;20066;48.764;9.176;2022-12-13T10:55:00;97385.00;;;1.74;47.53
550;BME280;20066;48.764;9.176;2022-12-13T10:57:50;97391.59;;;1.02;50.20
550;BME280;20066;48.764;9.176;2022-12-13T11:00:37;97389.69;;;2.54;47.96
550;BME280;20066;48.764;9.176;2022-12-13T11:03:09;97391.03;;;1.24;49.58
550;BME280;20066;48.764;9.176;2022-12-13T11:05:37;97382.94;;;2.57;47.09
550;BME280;20066;48.764;9.176;2022-12-13T11:08:14;97392.63;;;2.11;46.86
550;BME280;20066;48.764;9.176;2022-12-13T11:10:44;97401.19;;;1.53;48.77
550;BME280;20066;48.764;9.176;2022-12-13T11:13:23;97388.53;;;1.47;49.15
550;BME280;20066;48.764;9.176;2022-12-13T11:15:54;97389.75;;;2.19;48.64
550;BME280;20066;48.764;9.176;2022-12-13T11:18:24;97379.53;;;2.98;45.86
550;BME280;20066;48.764;9.176;2022-12-13T11:20:55;97384.34;;;1.46;50.29
550;BME280;20066;48.764;9.176;2022-12-13T11:23:26;97385.88;;;0.56;51.44
550;BME280;20066;48.764;9.176;2022-12-13T11:25:59;97385.06;;;1.43;49.68
550;BME280;20066;48.764;9.176;2022-12-13T11:28:51;97372.63;;;0.40;52.13
550;BME280;20066;48.764;9.176;2022-12-13T11:31:28;97371.03;;;1.11;51.29
550;BME280;20066;48.764;9.176;2022-12-13T11:34:10;97363.84;;;0.80;50.84
550;BME280;20066;48.764;9.176;2022-12-13T11:36:49;97357.06;;;0.82;51.48
550;BME280;20066;48.764;9.176;2022-12-13T11:39:28;97350.38;;;0.41;52.43
550;BME280;20066;48.764;9.176;2022-12-13T11:42:00;97345.19;;;0.61;51.97
550;BME280;20066;48.764;9.176;2022-12-13T11:44:39;97343.34;;;0.93;50.17
550;BME280;20066;48.764;9.176;2022-12-13T11:47:17;97334.34;;;1.44;49.10
550;BME280;20066;48.764;9.176;2022-12-13T11:49:48;97340.78;;;0.37;51.56
550;BME280;20066;48.764;9.176;2022-12-13T11:52:18;97351.13;;;1.01;50.90
550;BME280;20066;48.764;9.176;2022-12-13T11:54:52;97354.81;;;1.12;50.05
550;BME280;20066;48.764;9.176;2022-12-13T11:57:30;97366.50;;;1.11;50.33
550;BME280;20066;48.764;9.176;2022-12-13T12:00:06;97362.81;;;1.98;49.06
550;BME280;20066;48.764;9.176;2022-12-13T12:02:41;97358.00;;;2.04;47.70
550;BME280;20066;48.764;9.176;2022-12-13T12:05:21;97350.53;;;1.39;48.98
550;BME280;20066;48.764;9.176;2022-12-13T12:07:56;97348.81;;;1.47;48.76
550;BME280;20066;48.764;9.176;2022-12-13T12:10:46;97353.94;;;1.08;51.11
550;BME280;20066;48.764;9.176;2022-12-13T12:13:21;97354.72;;;1.25;49.93
550;BME280;20066;48.764;9.176;2022-12-13T12:15:54;97338.84;;;1.09;50.55
550;BME280;20066;48.764;9.176;2022-12-13T12:18:25;97346.28;;;1.03;50.34
550;BME280;20066;48.764;9.176;2022-12-13T12:21:11;97333.13;;;1.73;49.81
550;BME280;20066;48.764;9.176;2022-12-13T12:23:55;97336.97;;;1.95;48.67
550;BME280;20066;48.764;9.176;2022-12-13T12:26:33;97336.44;;;2.05;49.13
550;BME280;20066;48.764;9.176;2022-12-13T12:29:19;97340.13;;;1.81;48.22
550;BME280;20066;48.764;9.176;2022-12-13T12:31:56;97339.28;;;0.24;52.10
550;BME280;20066;48.764;9.176;2022-12-13T12:34:34;97341.31;;;1.33;49.92
550;BME280;20066;48.764;9.176;2022-12-13T12:37:13;97330.72;;;1.68;49.88
550;BME280;20066;48.764;9.176;2022-12-13T12:39:56;97318.53;;;1.64;50.53
550;BME280;20066;48.764;9.176;2022-12-13T12:42:37;97315.88;;;1.29;49.86
550;BME280;20066;48.764;9.176;2022-12-13T12:45:37;97312.50;;;2.02;48.64
550;BME280;20066;48.764;9.176;2022-12-13T12:48:42;97320.72;;;1.42;50.83
550;BME280;20066;48.764;9.176;2022-12-13T12:51:32;97323.38;;;1.11;51.04
550;BME280;20066;48.764;9.176;2022-12-13T12:54:17;97318.41;;;1.41;49.98
550;BME280;20066;48.764;9.176;2022-12-13T12:57:03;97316.94;;;1.78;49.42
550;BME280;20066;48.764;9.176;2022-12-13T12:59:39;97313.31;;;1.01;51.92
550;BME280;20066;48.764;9.176;2022-12-13T13:02:16;97319.69;;;0.25;53.29
550;BME280;20066;48.764;9.176;2022-12-13T13:04:51;97315.50;;;1.30;51.61
550;BME280;20066;48.764;9.176;2022-12-13T13:07:23;97318.50;;;1.29;51.38
550;BME280;20066;48.764;9.176;2022-12-13T13:09:53;97315.91;;;2.02;49.79
550;BME280;20066;48.764;9.176;2022-12-13T13:12:22;97307.81;;;2.33;48.21
550;BME280;20066;48.764;9.176;2022-12-13T13:14:55;97318.09;;;1.96;48.39
550;BME280;20066;48.764;9.176;2022-12-13T13:17:46;97300.94;;;1.05;51.66
550;BME280;20066;48.764;9.176;2022-12-13T13:20:24;97305.50;;;1.93;49.45
550;BME280;20066;48.764;9.176;2022-12-13T13:22:53;97300.13;;;0.41;53.10
550;BME280;20066;48.764;9.176;2022-12-13T13:25:44;97294.28;;;0.36;54.07
550;BME280;20066;48.764;9.176;2022-12-13T13:28:40;97290.16;;;1.13;51.66
550;BME280;20066;48.764;9.176;2022-12-13T13:31:07;97293.63;;;1.33;51.06
550;BME280;20066;48.764;9.176;2022-12-13T13:33:44;97291.47;;;0.72;52.54
550;BME280;20066;48.764;9.176;2022-12-13T13:36:45;97282.63;;;0.53;53.01
550;BME280;20066;48.764;9.176;2022-12-13T13:39:14;97280.09;;;1.19;51.17
550;BME280;20066;48.764;9.176;2022-12-13T13:42:07;97288.34;;;0.55;52.91
550;BME280;20066;48.764;9.176;2022-12-13T13:44:54;97293.16;;;0.80;52.28
550;BME280;20066;48.764;9.176;2022-12-13T13:47:35;97296.84;;;1.77;49.83
550;BME280;20066;48.764;9.176;2022-12-13T13:53:50;97293.31;;;1.19;50.17
550;BME280;20066;48.764;9.176;2022-12-13T13:56:43;97289.75;;;2.01;50.07
550;BME280;20066;48.764;9.176;2022-12-13T14:02:47;97289.25;;;2.14;49.37
550;BME280;20066;48.764;9.176;2022-12-13T14:08:47;97284.56;;;0.24;52.40